Time;durP1;ratioP1;P1;durP2;ratioP2;P2;SDS_P1;SDS_P2;PMS_P1;PMS_P2;Temp;Humidity;BMP_temperature;BMP_pressure;BME280_temperature;BME280_humidity;BME280_pressure;Samples;Min_cycle;Max_cycle;Signal;HPM_P1;HPM_P2
2023/03/04 00:02:00;;;;;;;5.07;1.33;;;;;;;2.94;100.00;101054.63;4971647;28;20509;-82
2023/03/04 00:04:25;;;;;;;10.27;1.77;;;;;;;2.94;100.00;101057.34;4971750;28;20205;-83
2023/03/04 00:06:51;;;;;;;0.73;0.73;;;;;;;2.95;100.00;101058.97;4971523;28;20264;-78
2023/03/04 00:09:16;;;;;;;19.10;2.60;;;;;;;2.98;100.00;101055.78;4971569;28;20277;-79
2023/03/04 00:11:41;;;;;;;12.50;2.47;;;;;;;2.98;100.00;101058.47;4971614;28;20214;-74
2023/03/04 00:14:07;;;;;;;8.80;3.27;;;;;;;2.99;100.00;101058.22;4971392;28;20265;-76
2023/03/04 00:16:32;;;;;;;2.90;0.83;;;;;;;3.01;100.00;101060.69;4971666;28;20182;-82
2023/03/04 00:18:57;;;;;;;8.93;2.80;;;;;;;3.03;100.00;101060.44;4971592;28;20182;-82
2023/03/04 00:21:23;;;;;;;6.53;2.40;;;;;;;3.03;100.00;101055.84;4971607;28;20252;-77
2023/03/04 00:23:48;;;;;;;0.43;0.43;;;;;;;3.05;100.00;101058.31;4971570;28;20186;-80
2023/03/04 00:26:14;;;;;;;1.33;1.23;;;;;;;3.08;100.00;101064.03;4971420;28;20269;-81
2023/03/04 00:28:40;;;;;;;8.20;2.30;;;;;;;3.11;100.00;101062.72;4973312;28;20177;-76
2023/03/04 00:31:06;;;;;;;0.60;0.60;;;;;;;3.13;100.00;101058.72;4974813;28;20744;-82
2023/03/04 00:33:31;;;;;;;8.23;0.60;;;;;;;3.12;100.00;101054.38;4974980;28;20273;-81
2023/03/04 00:35:56;;;;;;;8.30;0.87;;;;;;;3.15;100.00;101053.06;4974872;28;20300;-79
2023/03/04 00:38:22;;;;;;;10.60;1.40;;;;;;;3.12;100.00;101056.25;4974752;28;20182;-78
2023/03/04 00:40:47;;;;;;;7.00;2.63;;;;;;;3.11;100.00;101051.94;4974502;28;20178;-78
2023/03/04 00:43:12;;;;;;;2.50;2.30;;;;;;;3.11;100.00;101052.75;4974320;28;20452;-81
2023/03/04 00:45:38;;;;;;;4.23;1.53;;;;;;;3.12;100.00;101054.38;4974461;28;20178;-83
2023/03/04 00:48:03;;;;;;;13.27;1.80;;;;;;;3.12;100.00;101048.16;4974659;28;20184;-84
2023/03/04 00:50:28;;;;;;;2.70;2.20;;;;;;;3.10;100.00;101051.13;4976095;28;20282;-82
2023/03/04 00:52:54;;;;;;;2.00;1.73;;;;;;;3.10;100.00;101056.50;4977901;28;20700;-83
2023/03/04 00:55:19;;;;;;;7.23;2.27;;;;;;;3.11;100.00;101043.81;4976283;28;20174;-83
2023/03/04 00:57:44;;;;;;;11.37;1.37;;;;;;;3.13;100.00;101055.19;4975190;28;20197;-84
2023/03/04 01:00:12;;;;;;;0.37;0.37;;;;;;;3.13;100.00;101050.63;4974531;28;20539;-84
2023/03/04 01:02:38;;;;;;;6.23;1.70;;;;;;;3.13;100.00;101044.41;4974714;28;20212;-83
2023/03/04 01:05:03;;;;;;;14.30;2.17;;;;;;;3.10;100.00;101047.59;4974543;28;20209;-81
2023/03/04 01:07:29;;;;;;;12.23;2.20;;;;;;;3.09;100.00;101045.97;4974377;28;20201;-81
2023/03/04 01:09:54;;;;;;;2.57;2.37;;;;;;;3.12;100.00;101040.88;4974325;28;20214;-83
2023/03/04 01:12:19;;;;;;;14.93;2.40;;;;;;;3.12;100.00;101038.19;4974386;28;20213;-84
2023/03/04 01:14:45;;;;;;;11.43;2.53;;;;;;;3.15;100.00;101031.47;4974149;28;20518;-83
2023/03/04 01:17:11;;;;;;;17.27;2.07;;;;;;;3.16;100.00;101033.09;4974478;28;20174;-83
2023/03/04 01:19:36;;;;;;;2.90;2.70;;;;;;;3.17;100.00;101030.16;4974254;28;20534;-80
2023/03/04 01:22:02;;;;;;;6.07;2.90;;;;;;;3.19;100.00;101030.75;4974290;28;20182;-83
2023/03/04 01:24:28;;;;;;;12.40;3.27;;;;;;;3.19;100.00;101021.81;4974156;28;20186;-80
2023/03/04 01:26:54;;;;;;;7.90;1.87;;;;;;;3.24;100.00;101025.41;4973826;28;20184;-81
2023/03/04 01:29:19;;;;;;;0.40;0.37;;;;;;;3.24;100.00;101011.09;4973956;28;20174;-80
2023/03/04 01:31:44;;;;;;;3.23;2.47;;;;;;;3.26;100.00;101017.06;4973864;28;20210;-85
2023/03/04 01:34:10;;;;;;;5.87;2.63;;;;;;;3.28;100.00;101009.50;4974066;28;20182;-85
2023/03/04 01:36:35;;;;;;;3.83;1.87;;;;;;;3.30;99.73;101010.09;4973780;28;20672;-84
2023/03/04 01:39:00;;;;;;;1.53;1.27;;;;;;;3.31;99.71;101009.00;4973610;28;20648;-85
2023/03/04 01:41:26;;;;;;;6.77;3.00;;;;;;;3.33;99.47;101001.50;4973324;28;20672;-82
2023/03/04 01:43:59;;;;;;;12.80;1.87;;;;;;;3.32;99.59;101001.72;4973633;28;20225;-83
2023/03/04 01:46:25;;;;;;;1.70;1.60;;;;;;;3.31;99.84;100995.50;4973735;28;20178;-83
2023/03/04 01:48:50;;;;;;;8.47;3.13;;;;;;;3.29;99.54;100990.38;4973694;28;20174;-84
2023/03/04 01:51:17;;;;;;;3.13;2.90;;;;;;;3.30;99.81;100999.28;4973480;28;20209;-84
2023/03/04 01:53:44;;;;;;;2.47;1.07;;;;;;;3.28;100.00;100985.22;4973610;28;20182;-83
2023/03/04 01:56:33;;;;;;;17.83;2.00;;;;;;;3.29;99.73;100984.16;4973899;28;20290;-83
2023/03/04 01:59:22;;;;;;;1.93;1.77;;;;;;;3.31;100.00;100971.22;4973465;28;20178;-84
2023/03/04 02:02:08;;;;;;;1.33;1.23;;;;;;;3.34;100.00;100961.81;4971968;28;20561;-84
2023/03/04 02:04:33;;;;;;;2.33;1.07;;;;;;;3.35;99.52;100966.16;4972822;28;20214;-82
2023/03/04 02:07:01;;;;;;;3.33;2.67;;;;;;;3.39;99.63;100962.69;4973101;28;20593;-84
2023/03/04 02:09:28;;;;;;;1.90;0.83;;;;;;;3.39;99.55;100959.97;4973173;28;20237;-81
2023/03/04 02:11:54;;;;;;;2.17;1.53;;;;;;;3.40;99.58;100953.50;4973087;28;20773;-84
2023/03/04 02:14:20;;;;;;;4.40;1.13;;;;;;;3.44;99.75;100954.63;4973185;28;20256;-83
2023/03/04 02:16:46;;;;;;;5.83;1.87;;;;;;;3.42;99.80;100955.97;4972948;28;20174;-81
2023/03/04 02:19:19;;;;;;;6.27;2.37;;;;;;;3.41;99.88;100949.75;4972943;28;20220;-84
2023/03/04 02:21:44;;;;;;;0.20;0.20;;;;;;;3.40;100.00;100953.50;4973114;28;20625;-81
2023/03/04 02:24:10;;;;;;;2.90;0.70;;;;;;;3.41;100.00;100947.03;4972925;28;20189;-81
2023/03/04 02:26:35;;;;;;;6.63;1.77;;;;;;;3.39;100.00;100941.09;4972889;28;20174;-81
2023/03/04 02:29:02;;;;;;;4.27;2.10;;;;;;;3.44;100.00;100943.84;4972826;28;20182;-82
2023/03/04 02:31:43;;;;;;;4.07;1.13;;;;;;;3.46;100.00;100930.88;4972804;28;20677;-82
2023/03/04 02:34:24;;;;;;;1.13;1.07;;;;;;;3.49;100.00;100935.00;4972795;28;20166;-83
2023/03/04 02:36:52;;;;;;;1.83;1.43;;;;;;;3.51;100.00;100933.66;4972595;28;20277;-80
2023/03/04 02:39:20;;;;;;;4.97;1.40;;;;;;;3.55;100.00;100926.69;4972721;28;20210;-82
2023/03/04 02:41:46;;;;;;;1.30;1.20;;;;;;;3.56;100.00;100936.41;4972732;28;20177;-81
2023/03/04 02:44:20;;;;;;;2.47;1.23;;;;;;;3.57;99.98;100924.53;4972610;28;20181;-84
2023/03/04 02:46:46;;;;;;;6.07;1.80;;;;;;;3.57;99.78;100921.84;4972497;28;20174;-82
2023/03/04 02:49:12;;;;;;;6.93;1.80;;;;;;;3.58;100.00;100922.66;4972594;28;20237;-83
2023/03/04 02:51:38;;;;;;;0.87;0.87;;;;;;;3.62;99.92;100934.59;4971704;28;20292;-84
2023/03/04 02:54:04;;;;;;;3.23;1.93;;;;;;;3.65;100.00;100930.56;4972504;28;20269;-77
2023/03/04 02:56:29;;;;;;;1.20;0.30;;;;;;;3.66;100.00;100935.72;4972320;28;20895;-84
2023/03/04 02:58:54;;;;;;;4.13;1.50;;;;;;;3.67;100.00;100931.94;4972296;28;20185;-79
2023/03/04 03:01:20;;;;;;;0.50;0.30;;;;;;;3.68;99.89;100927.38;4972431;28;20257;-78
2023/03/04 03:03:45;;;;;;;0.73;0.67;;;;;;;3.69;99.78;100920.88;4972359;28;20579;-83
2023/03/04 03:06:10;;;;;;;3.87;1.13;;;;;;;3.69;99.84;100923.59;4972224;28;20642;-82
2023/03/04 03:08:36;;;;;;;2.23;0.47;;;;;;;3.70;99.96;100925.22;4972098;28;20177;-84
2023/03/04 03:11:01;;;;;;;0.53;0.53;;;;;;;3.73;99.73;100928.22;4972267;28;20205;-83
2023/03/04 03:13:27;;;;;;;7.97;1.00;;;;;;;3.77;99.87;100925.84;4972136;28;20186;-82
2023/03/04 03:15:53;;;;;;;10.03;1.40;;;;;;;3.75;100.00;100917.97;4972237;28;20602;-83
2023/03/04 03:18:18;;;;;;;0.93;0.30;;;;;;;3.75;100.00;100922.56;4973135;28;20261;-85
2023/03/04 03:20:43;;;;;;;0.97;0.97;;;;;;;3.75;100.00;100919.84;4972221;28;20188;-82
2023/03/04 03:23:09;;;;;;;1.70;1.07;;;;;;;3.73;100.00;100920.13;4973781;28;20512;-84
2023/03/04 03:25:34;;;;;;;0.40;0.40;;;;;;;3.74;100.00;100912.81;4973491;28;20212;-84
2023/03/04 03:27:59;;;;;;;7.40;1.50;;;;;;;3.73;100.00;100909.31;4971950;28;20181;-83
2023/03/04 03:30:25;;;;;;;11.43;0.93;;;;;;;3.76;100.00;100919.63;4971984;28;20217;-83
2023/03/04 03:32:50;;;;;;;14.03;2.67;;;;;;;3.76;100.00;100905.28;4972001;28;20182;-83
2023/03/04 03:35:16;;;;;;;9.73;1.13;;;;;;;3.75;100.00;100917.16;4972387;28;20178;-85
2023/03/04 03:37:41;;;;;;;4.80;0.87;;;;;;;3.73;100.00;100914.72;4972008;28;20232;-84
2023/03/04 03:40:07;;;;;;;1.03;0.87;;;;;;;3.74;100.00;100904.72;4971988;28;20717;-83
2023/03/04 03:42:32;;;;;;;3.60;0.80;;;;;;;3.73;100.00;100913.91;4971893;28;20181;-84
2023/03/04 03:44:58;;;;;;;1.70;0.50;;;;;;;3.72;100.00;100904.97;4971967;28;20538;-83
2023/03/04 03:47:23;;;;;;;4.30;0.87;;;;;;;3.73;100.00;100908.50;4971812;28;20194;-85
2023/03/04 03:49:48;;;;;;;0.67;0.67;;;;;;;3.74;100.00;100910.13;4971943;28;20186;-84
2023/03/04 03:52:14;;;;;;;11.47;1.70;;;;;;;3.70;100.00;100909.81;4971829;28;20269;-83
2023/03/04 03:54:39;;;;;;;6.57;1.43;;;;;;;3.70;100.00;100901.72;4971834;28;20256;-84
2023/03/04 03:57:05;;;;;;;0.93;0.93;;;;;;;3.69;100.00;100908.19;4971716;28;20213;-83
2023/03/04 03:59:30;;;;;;;7.17;0.63;;;;;;;3.67;100.00;100902.22;4971784;28;20622;-84
2023/03/04 04:01:55;;;;;;;17.47;1.33;;;;;;;3.66;100.00;100899.78;4971831;28;20633;-84
2023/03/04 04:04:20;;;;;;;2.63;1.10;;;;;;;3.64;100.00;100901.94;4974811;28;20186;-83
2023/03/04 04:06:46;;;;;;;4.17;1.33;;;;;;;3.66;100.00;100902.50;4975204;28;20174;-80
2023/03/04 04:09:11;;;;;;;6.17;1.27;;;;;;;3.65;100.00;100893.56;4975527;28;20549;-83
2023/03/04 04:11:36;;;;;;;12.70;0.53;;;;;;;3.61;100.00;100892.44;4975402;28;20220;-84
2023/03/04 04:14:02;;;;;;;1.90;1.27;;;;;;;3.63;100.00;100903.00;4975357;28;20178;-84
2023/03/04 04:16:28;;;;;;;7.53;1.17;;;;;;;3.63;100.00;100898.41;4975277;28;20653;-84
2023/03/04 04:18:53;;;;;;;2.83;0.93;;;;;;;3.58;100.00;100887.53;4975321;28;20178;-81
2023/03/04 04:21:18;;;;;;;1.50;0.80;;;;;;;3.58;100.00;100895.63;4975302;28;20182;-85
2023/03/04 04:23:43;;;;;;;9.00;0.63;;;;;;;3.60;100.00;100885.38;4975220;28;20188;-81
2023/03/04 04:26:09;;;;;;;1.87;0.70;;;;;;;3.62;100.00;100895.94;4975129;28;20186;-83
2023/03/04 04:28:34;;;;;;;14.57;0.53;;;;;;;3.63;100.00;100892.19;4973818;28;20181;-82
2023/03/04 04:30:59;;;;;;;0.13;0.10;;;;;;;3.63;100.00;100892.19;4975031;28;20205;-80
2023/03/04 04:33:25;;;;;;;1.77;0.80;;;;;;;3.60;100.00;100880.00;4975119;28;20174;-84
2023/03/04 04:35:50;;;;;;;1.07;0.97;;;;;;;3.59;100.00;100883.75;4973728;28;20255;-82
2023/03/04 04:38:16;;;;;;;4.03;1.43;;;;;;;3.58;100.00;100879.44;4974943;28;20174;-83
2023/03/04 04:40:41;;;;;;;1.23;0.93;;;;;;;3.55;100.00;100877.25;4973722;28;20650;-83
2023/03/04 04:43:07;;;;;;;2.87;1.70;;;;;;;3.54;100.00;100873.72;4974836;28;20225;-82
2023/03/04 04:45:33;;;;;;;0.00;0.00;;;;;;;3.52;100.00;100881.28;4974876;28;20174;-83
2023/03/04 04:47:59;;;;;;;4.00;1.30;;;;;;;3.52;100.00;100880.47;4974683;28;20622;-82
2023/03/04 04:50:24;;;;;;;6.23;0.67;;;;;;;3.51;100.00;100876.94;4974758;28;20216;-84
2023/03/04 04:52:50;;;;;;;0.37;0.37;;;;;;;3.51;100.00;100878.84;4974811;28;20174;-82
2023/03/04 04:55:15;;;;;;;3.93;0.57;;;;;;;3.51;100.00;100873.44;4974796;28;20197;-83
2023/03/04 04:57:41;;;;;;;0.73;0.30;;;;;;;3.50;100.00;100877.19;4974581;28;20177;-83
2023/03/04 05:00:07;;;;;;;19.23;1.70;;;;;;;3.47;100.00;100875.81;4974741;28;20540;-85
2023/03/04 05:02:35;;;;;;;4.60;1.27;;;;;;;3.46;100.00;100870.66;4974627;28;20616;-77
2023/03/04 05:05:01;;;;;;;10.57;0.73;;;;;;;3.43;100.00;100877.38;4974644;28;20201;-82
2023/03/04 05:07:26;;;;;;;1.33;0.93;;;;;;;3.41;100.00;100874.13;4974189;28;20641;-84
2023/03/04 05:09:52;;;;;;;9.50;1.50;;;;;;;3.39;100.00;100861.94;4974308;28;20186;-83
2023/03/04 05:12:17;;;;;;;9.00;2.03;;;;;;;3.37;100.00;100867.59;4974639;28;20268;-84
2023/03/04 05:14:42;;;;;;;4.23;1.40;;;;;;;3.36;100.00;100862.47;4973528;28;20181;-82
2023/03/04 05:17:08;;;;;;;2.03;1.30;;;;;;;3.35;100.00;100861.66;4974099;28;20213;-82
2023/03/04 05:19:33;;;;;;;10.30;1.57;;;;;;;3.33;100.00;100855.69;4974250;28;20178;-83
2023/03/04 05:21:58;;;;;;;2.17;1.10;;;;;;;3.32;100.00;100856.72;4974365;28;20253;-83
2023/03/04 05:24:23;;;;;;;2.67;0.80;;;;;;;3.33;100.00;100854.84;4974237;28;20832;-82
2023/03/04 05:26:49;;;;;;;7.70;0.67;;;;;;;3.30;100.00;100845.38;4973896;28;20184;-84
2023/03/04 05:29:14;;;;;;;2.10;1.10;;;;;;;3.31;100.00;100846.19;4974219;28;20186;-82
2023/03/04 05:31:39;;;;;;;1.60;0.90;;;;;;;3.31;100.00;100852.41;4973984;28;20511;-84
2023/03/04 05:34:05;;;;;;;3.53;1.60;;;;;;;3.31;100.00;100851.59;4973954;28;20174;-83
2023/03/04 05:36:30;;;;;;;16.87;1.37;;;;;;;3.32;100.00;100848.63;4973856;28;20178;-83
2023/03/04 05:38:55;;;;;;;1.13;0.83;;;;;;;3.30;100.00;100845.38;4973894;28;20178;-82
2023/03/04 05:41:21;;;;;;;2.73;0.83;;;;;;;3.29;100.00;100847.25;4973733;28;20186;-82
2023/03/04 05:43:48;;;;;;;2.83;1.60;;;;;;;3.27;100.00;100862.06;4973821;28;20174;-84
2023/03/04 05:46:15;;;;;;;1.90;0.87;;;;;;;3.26;100.00;100855.88;4954790;28;20189;-85
2023/03/04 05:48:41;;;;;;;5.43;2.43;;;;;;;3.24;100.00;100854.50;4954442;28;20245;-84
2023/03/04 05:51:07;;;;;;;6.50;1.90;;;;;;;3.23;100.00;100850.97;4954208;28;20202;-83
2023/03/04 05:53:35;;;;;;;1.87;0.87;;;;;;;3.24;100.00;100846.38;4954382;28;20179;-82
2023/03/04 05:56:06;;;;;;;1.10;1.03;;;;;;;3.24;100.00;100841.00;4954158;28;20207;-81
2023/03/04 05:58:31;;;;;;;9.63;1.57;;;;;;;3.24;100.00;100841.00;4953003;29;20547;-82
2023/03/04 06:00:59;;;;;;;4.17;0.60;;;;;;;3.24;100.00;100839.09;4954246;28;20181;-83
2023/03/04 06:03:24;;;;;;;1.30;0.80;;;;;;;3.25;100.00;100846.13;4954119;28;20587;-83
2023/03/04 06:05:50;;;;;;;2.43;0.67;;;;;;;3.25;100.00;100843.44;4953164;28;20262;-83
2023/03/04 06:08:15;;;;;;;2.23;1.40;;;;;;;3.26;100.00;100839.66;4953982;28;20174;-79
2023/03/04 06:10:40;;;;;;;0.83;0.77;;;;;;;3.22;100.00;100843.94;4952526;28;20309;-83
2023/03/04 06:13:07;;;;;;;2.80;1.03;;;;;;;3.19;100.00;100849.03;4954001;28;20174;-83
2023/03/04 06:15:32;;;;;;;3.83;1.43;;;;;;;3.15;100.00;100847.91;4953847;28;20213;-83
2023/03/04 06:17:58;;;;;;;2.20;1.20;;;;;;;3.13;100.00;100839.25;4953808;28;20210;-84
2023/03/04 06:20:23;;;;;;;13.37;1.13;;;;;;;3.14;100.00;100851.66;4953888;28;20205;-83
2023/03/04 06:22:48;;;;;;;3.20;2.17;;;;;;;3.14;100.00;100846.25;4953874;28;20186;-83
2023/03/04 06:25:14;;;;;;;1.37;1.03;;;;;;;3.14;100.00;100846.25;4953649;28;20517;-82
2023/03/04 06:27:40;;;;;;;0.80;0.80;;;;;;;3.15;100.00;100848.72;4953489;28;20171;-84
2023/03/04 06:30:06;;;;;;;5.33;1.17;;;;;;;3.16;100.00;100849.53;4953606;28;20298;-80
2023/03/04 06:32:31;;;;;;;0.40;0.40;;;;;;;3.17;100.00;100853.84;4966930;28;20185;-77
2023/03/04 06:34:56;;;;;;;4.60;0.67;;;;;;;3.18;100.00;100859.03;4973197;28;20174;-83
2023/03/04 06:37:22;;;;;;;5.93;0.90;;;;;;;3.20;100.00;100862.28;4972652;28;20185;-82
2023/03/04 06:39:47;;;;;;;15.33;1.33;;;;;;;3.19;100.00;100849.03;4972685;28;20264;-83
2023/03/04 06:42:13;;;;;;;1.63;1.03;;;;;;;3.19;100.00;100859.84;4972813;28;20170;-80
2023/03/04 06:44:38;;;;;;;1.77;1.30;;;;;;;3.20;100.00;100859.59;4972792;28;20201;-82
2023/03/04 06:47:04;;;;;;;26.07;1.13;;;;;;;3.21;100.00;100858.50;4972563;28;20606;-82
2023/03/04 06:49:29;;;;;;;8.97;1.60;;;;;;;3.20;100.00;100861.47;4972656;28;20666;-82
2023/03/04 06:51:54;;;;;;;0.93;0.90;;;;;;;3.20;100.00;100856.88;4972681;28;20296;-81
2023/03/04 06:54:20;;;;;;;8.33;1.20;;;;;;;3.21;100.00;100852.31;4972588;28;20277;-82
2023/03/04 06:56:45;;;;;;;5.50;1.13;;;;;;;3.20;100.00;100856.88;4972438;28;20687;-82
2023/03/04 06:59:10;;;;;;;6.67;1.67;;;;;;;3.24;100.00;100847.22;4972541;28;20178;-79
2023/03/04 07:01:36;;;;;;;0.10;0.10;;;;;;;3.28;100.00;100851.03;4972445;28;20324;-79
2023/03/04 07:04:02;;;;;;;8.30;1.03;;;;;;;3.33;100.00;100861.09;4972490;28;20217;-80
2023/03/04 07:06:28;;;;;;;8.23;2.90;;;;;;;3.38;100.00;100858.44;4972288;28;20178;-80
2023/03/04 07:08:54;;;;;;;5.00;3.60;;;;;;;3.41;100.00;100843.59;4972258;28;20296;-82
2023/03/04 07:11:21;;;;;;;3.37;2.20;;;;;;;3.44;100.00;100846.59;4972468;28;20289;-81
2023/03/04 07:13:46;;;;;;;7.13;1.33;;;;;;;3.47;100.00;100845.28;4972303;28;20247;-82
2023/03/04 07:16:14;;;;;;;0.13;0.13;;;;;;;3.53;100.00;100845.09;4972241;28;20212;-82
2023/03/04 07:18:40;;;;;;;10.17;1.90;;;;;;;3.56;100.00;100839.16;4972202;28;20325;-80
2023/03/04 07:21:06;;;;;;;7.57;2.23;;;;;;;3.58;100.00;100855.13;4972291;28;20260;-83
2023/03/04 07:23:31;;;;;;;5.77;1.43;;;;;;;3.62;100.00;100845.47;4972182;28;20586;-78
2023/03/04 07:25:57;;;;;;;10.07;1.57;;;;;;;3.64;100.00;100856.81;4972125;28;20261;-82
2023/03/04 07:28:22;;;;;;;1.63;1.50;;;;;;;3.69;100.00;100845.22;4972171;28;20649;-81
2023/03/04 07:30:48;;;;;;;1.77;1.00;;;;;;;3.72;100.00;100859.03;4972043;28;20228;-83
2023/03/04 07:33:13;;;;;;;5.57;1.53;;;;;;;3.74;100.00;100850.69;4972088;28;20177;-82
2023/03/04 07:35:39;;;;;;;15.60;1.17;;;;;;;3.80;100.00;100846.97;4971962;28;20178;-78
2023/03/04 07:38:05;;;;;;;0.73;0.70;;;;;;;3.84;100.00;100857.00;4974548;28;20181;-80
2023/03/04 07:40:30;;;;;;;6.10;1.10;;;;;;;3.88;100.00;100857.28;4978674;28;20264;-80
2023/03/04 07:42:55;;;;;;;5.83;1.97;;;;;;;3.86;100.00;100868.38;4978679;28;20173;-79
2023/03/04 07:45:22;;;;;;;1.07;0.47;;;;;;;3.86;100.00;100870.25;4978474;28;20184;-72
2023/03/04 07:47:48;;;;;;;10.37;1.07;;;;;;;3.87;100.00;100859.19;4978180;28;20181;-79
2023/03/04 07:50:14;;;;;;;5.50;0.97;;;;;;;3.83;100.00;100865.38;4978320;28;20657;-77
2023/03/04 07:52:47;;;;;;;5.10;0.83;;;;;;;3.84;100.00;100859.69;4978229;28;20185;-76
2023/03/04 07:55:14;;;;;;;1.50;0.90;;;;;;;3.87;100.00;100867.28;4978331;28;20173;-77
2023/03/04 07:57:41;;;;;;;1.07;0.53;;;;;;;3.95;100.00;100863.31;4978152;28;20693;-78
2023/03/04 08:00:08;;;;;;;1.93;1.00;;;;;;;4.00;100.00;100849.03;4978234;28;20176;-79
2023/03/04 08:02:34;;;;;;;1.30;1.13;;;;;;;4.05;100.00;100852.59;4978199;28;20177;-80
2023/03/04 08:04:59;;;;;;;1.13;1.03;;;;;;;4.10;100.00;100849.13;4978246;28;20573;-80
2023/03/04 08:07:24;;;;;;;0.10;0.10;;;;;;;4.18;100.00;100852.13;4978024;28;20182;-79
2023/03/04 08:09:49;;;;;;;1.60;0.70;;;;;;;4.22;100.00;100857.06;4978072;28;20660;-79
2023/03/04 08:12:15;;;;;;;0.10;0.10;;;;;;;4.22;100.00;100848.94;4978318;28;20224;-78
2023/03/04 08:14:40;;;;;;;3.20;2.33;;;;;;;4.22;100.00;100851.66;4978407;28;20222;-78
2023/03/04 08:17:06;;;;;;;1.40;0.60;;;;;;;4.22;100.00;100847.06;4977849;28;20545;-80
2023/03/04 08:19:31;;;;;;;0.70;0.57;;;;;;;4.25;100.00;100851.13;4978106;28;20178;-73
2023/03/04 08:21:56;;;;;;;0.60;0.60;;;;;;;4.25;100.00;100845.72;4977991;28;20417;-80
2023/03/04 08:24:22;;;;;;;5.40;0.40;;;;;;;4.31;100.00;100842.78;4977967;28;20717;-77
2023/03/04 08:26:49;;;;;;;1.30;1.00;;;;;;;4.38;100.00;100837.16;4977779;28;20186;-78
2023/03/04 08:29:19;;;;;;;0.93;0.80;;;;;;;4.46;100.00;100836.66;4977974;28;20272;-78
2023/03/04 08:31:45;;;;;;;0.70;0.60;;;;;;;4.51;100.00;100842.09;4977611;28;20652;-80
2023/03/04 08:34:12;;;;;;;0.90;0.90;;;;;;;4.51;100.00;100844.81;4977496;28;20184;-84
2023/03/04 08:36:37;;;;;;;1.87;0.50;;;;;;;4.54;100.00;100847.00;4977428;28;20577;-78
2023/03/04 08:39:04;;;;;;;0.20;0.20;;;;;;;4.51;100.00;100855.63;4977612;28;20177;-77
2023/03/04 08:41:29;;;;;;;0.63;0.63;;;;;;;4.49;100.00;100849.69;4976580;28;20205;-75
2023/03/04 08:43:55;;;;;;;0.10;0.10;;;;;;;4.40;100.00;100843.13;4978624;28;20236;-71
2023/03/04 08:46:20;;;;;;;0.43;0.43;;;;;;;4.31;100.00;100844.66;4979060;28;20174;-75
2023/03/04 08:48:45;;;;;;;1.07;0.90;;;;;;;4.23;100.00;100847.88;4965754;28;20175;-72
2023/03/04 08:51:13;;;;;;;0.30;0.00;;;;;;;4.24;100.00;100846.78;4955489;28;20218;-73
2023/03/04 08:53:39;;;;;;;0.70;0.70;;;;;;;4.23;100.00;100845.16;4955764;28;20262;-73
2023/03/04 08:56:08;;;;;;;2.73;0.83;;;;;;;4.26;100.00;100850.03;4955512;28;20261;-74
2023/03/04 08:58:34;;;;;;;2.10;1.90;;;;;;;4.29;100.00;100847.63;4955869;28;20556;-82
2023/03/04 09:01:00;;;;;;;2.03;0.80;;;;;;;4.37;100.00;100852.56;4955394;28;20179;-76
2023/03/04 09:03:27;;;;;;;0.77;0.77;;;;;;;4.40;100.00;100852.03;4955223;28;20178;-69
2023/03/04 09:05:52;;;;;;;0.00;0.00;;;;;;;4.52;100.00;100851.84;4955380;28;20175;-76
2023/03/04 09:08:17;;;;;;;1.70;0.83;;;;;;;4.51;100.00;100842.09;4955027;28;20234;-77
2023/03/04 09:10:44;;;;;;;0.77;0.40;;;;;;;4.55;100.00;100845.09;4955297;28;20257;-77
2023/03/04 09:13:10;;;;;;;2.97;1.13;;;;;;;4.57;100.00;100843.75;4954985;28;20195;-75
2023/03/04 09:15:37;;;;;;;2.70;1.10;;;;;;;4.59;100.00;100846.19;4954883;28;20217;-77
2023/03/04 09:18:04;;;;;;;2.30;1.00;;;;;;;4.68;100.00;100850.88;4954859;28;20556;-78
2023/03/04 09:20:30;;;;;;;7.10;0.67;;;;;;;4.73;100.00;100850.06;4954979;28;20642;-78
2023/03/04 09:22:55;;;;;;;0.87;0.80;;;;;;;4.77;100.00;100848.47;4954924;28;20597;-78
2023/03/04 09:25:21;;;;;;;6.93;0.70;;;;;;;4.80;100.00;100845.25;4954830;28;20246;-77
2023/03/04 09:27:46;;;;;;;0.00;0.00;;;;;;;4.84;100.00;100848.25;4954687;28;20291;-78
2023/03/04 09:30:12;;;;;;;0.30;0.30;;;;;;;4.90;100.00;100847.16;4954623;28;20661;-77
2023/03/04 09:32:37;;;;;;;1.37;1.27;;;;;;;4.93;100.00;100857.50;4954636;28;20178;-77
2023/03/04 09:35:03;;;;;;;0.63;0.63;;;;;;;4.94;100.00;100856.41;4954611;28;20174;-76
2023/03/04 09:37:29;;;;;;;0.00;0.00;;;;;;;4.95;100.00;100855.34;4954516;28;20183;-76
2023/03/04 09:39:54;;;;;;;0.30;0.30;;;;;;;4.90;100.00;100856.09;4954722;28;20335;-77
2023/03/04 09:42:45;;;;;;;7.10;0.50;;;;;;;4.88;100.00;100852.84;4954485;28;20274;-76
2023/03/04 09:45:16;;;;;;;6.67;1.63;;;;;;;4.78;100.00;100853.63;4954396;28;20174;-76
2023/03/04 09:47:43;;;;;;;1.23;1.13;;;;;;;4.73;100.00;100860.91;4954240;28;20262;-75
2023/03/04 09:50:10;;;;;;;2.33;0.83;;;;;;;4.70;100.00;100843.28;4954205;28;20171;-74
2023/03/04 09:53:01;;;;;;;7.37;0.93;;;;;;;4.66;100.00;100853.03;4954364;28;20174;-74
2023/03/04 09:55:32;;;;;;;0.27;0.27;;;;;;;4.68;100.00;100853.56;4954292;28;20183;-74
2023/03/04 09:58:15;;;;;;;0.10;0.10;;;;;;;4.62;100.00;100848.38;4954148;28;20182;-74
2023/03/04 10:00:44;;;;;;;1.13;0.97;;;;;;;4.56;100.00;100844.84;4953677;28;20175;-75
2023/03/04 10:03:18;;;;;;;0.70;0.70;;;;;;;4.46;100.00;100850.97;4954095;28;20266;-76
2023/03/04 10:05:53;;;;;;;4.83;0.87;;;;;;;4.35;100.00;100838.50;4953924;28;20189;-76
2023/03/04 10:08:40;;;;;;;0.23;0.23;;;;;;;4.41;100.00;100840.16;4954083;28;20178;-76
2023/03/04 10:11:13;;;;;;;1.03;0.93;;;;;;;4.42;100.00;100839.06;4953866;28;20528;-76
2023/03/04 10:13:50;;;;;;;0.70;0.70;;;;;;;4.44;100.00;100836.91;4954283;28;20194;-76
2023/03/04 10:16:20;;;;;;;4.47;0.67;;;;;;;4.56;100.00;100836.72;4952452;28;20219;-75
2023/03/04 10:19:24;;;;;;;17.77;1.33;;;;;;;4.66;100.00;100836.78;4955054;28;20677;-75
2023/03/04 10:21:51;;;;;;;3.83;2.77;;;;;;;4.68;100.00;100844.63;4970969;28;20221;-76
2023/03/04 10:24:23;;;;;;;1.43;1.10;;;;;;;4.69;100.00;100830.84;4972975;28;20253;-76
2023/03/04 10:26:56;;;;;;;0.77;0.60;;;;;;;4.76;100.00;100839.53;4972668;28;20178;-74
2023/03/04 10:29:23;;;;;;;11.90;1.90;;;;;;;4.75;100.00;100839.78;4972977;28;20268;-74
2023/03/04 10:31:49;;;;;;;3.83;2.23;;;;;;;4.73;100.00;100841.94;4972647;28;20210;-75
2023/03/04 10:34:16;;;;;;;5.63;1.10;;;;;;;4.68;100.00;100852.75;4972913;28;20264;-75
2023/03/04 10:37:00;;;;;;;8.13;2.10;;;;;;;4.69;100.00;100846.25;4972665;28;20261;-76
2023/03/04 10:39:35;;;;;;;0.33;0.33;;;;;;;4.74;100.00;100851.69;4972704;28;20185;-76
2023/03/04 10:42:04;;;;;;;13.83;2.90;;;;;;;4.68;100.00;100850.06;4972880;28;20606;-75
2023/03/04 10:44:33;;;;;;;0.73;0.17;;;;;;;4.72;100.00;100846.53;4972705;28;20708;-76
2023/03/04 10:46:58;;;;;;;0.60;0.47;;;;;;;4.76;100.00;100846.81;4972442;28;20178;-76
2023/03/04 10:49:26;;;;;;;0.83;0.53;;;;;;;4.85;100.00;100844.44;4972630;28;20585;-76
2023/03/04 10:52:02;;;;;;;13.50;1.70;;;;;;;4.99;100.00;100843.69;4972372;28;20292;-76
2023/03/04 10:54:55;;;;;;;1.20;0.57;;;;;;;5.15;100.00;100841.88;4972321;28;20177;-76
2023/03/04 10:57:35;;;;;;;0.03;0.03;;;;;;;5.31;100.00;100840.03;4972246;28;20244;-76
2023/03/04 11:00:21;;;;;;;1.40;1.13;;;;;;;5.30;98.96;100828.38;4972372;28;20201;-75
2023/03/04 11:02:47;;;;;;;10.90;1.10;;;;;;;5.38;96.60;100829.75;4965035;28;20342;-75
2023/03/04 11:05:24;;;;;;;0.73;0.20;;;;;;;5.43;94.86;100818.13;4972233;28;20184;-74
2023/03/04 11:07:58;;;;;;;0.50;0.20;;;;;;;5.54;93.84;100819.78;4972087;28;20599;-76
2023/03/04 11:10:26;;;;;;;0.87;0.60;;;;;;;5.54;92.98;100826.00;4971905;28;20264;-74
2023/03/04 11:12:58;;;;;;;7.53;1.13;;;;;;;5.57;91.79;100819.22;4971728;28;20626;-75
2023/03/04 11:15:30;;;;;;;8.27;0.90;;;;;;;5.68;92.46;100824.41;4972183;28;20713;-76
2023/03/04 11:18:17;;;;;;;0.47;0.47;;;;;;;5.67;92.08;100836.31;4972035;28;20205;-75
2023/03/04 11:20:47;;;;;;;3.90;0.50;;;;;;;5.62;92.44;100838.19;4972040;28;20193;-75
2023/03/04 11:23:19;;;;;;;0.60;0.43;;;;;;;5.56;92.71;100842.00;4972002;28;20181;-75
2023/03/04 11:26:01;;;;;;;0.33;0.33;;;;;;;5.47;92.82;100833.56;4971820;28;20170;-75